createdAt,value
2018-04-17T00:00:46.243Z,13.80
2018-04-17T00:01:46.240Z,13.00
2018-04-17T00:02:46.238Z,14.00
2018-04-17T00:03:46.226Z,17.00
2018-04-17T00:04:46.219Z,11.30
2018-04-17T00:05:46.205Z,14.70
2018-04-17T00:06:46.200Z,15.90
2018-04-17T00:07:46.195Z,12.50
2018-04-17T00:08:46.187Z,16.10
2018-04-17T00:09:46.178Z,15.60
2018-04-17T00:10:46.171Z,14.30
2018-04-17T00:11:46.163Z,12.90
2018-04-17T00:12:46.153Z,14.50
2018-04-17T00:13:46.150Z,14.00
2018-04-17T00:14:46.142Z,13.50
2018-04-17T00:15:46.138Z,13.80
2018-04-17T00:16:46.127Z,15.80
2018-04-17T00:17:46.118Z,11.40
2018-04-17T00:18:46.109Z,15.20
2018-04-17T00:19:46.099Z,12.40
2018-04-17T00:20:46.096Z,13.90
2018-04-17T00:21:46.088Z,17.50
2018-04-17T00:22:46.081Z,13.60
2018-04-17T00:23:46.073Z,15.60
2018-04-17T00:24:46.064Z,14.70
2018-04-17T00:25:46.058Z,12.60
2018-04-17T00:26:46.051Z,13.80
2018-04-17T00:27:46.038Z,13.50
2018-04-17T00:28:46.033Z,13.90
2018-04-17T00:29:46.027Z,16.10
2018-04-17T00:30:46.028Z,13.70
2018-04-17T00:31:46.012Z,14.60
2018-04-17T00:32:46.001Z,14.60
2018-04-17T00:33:46.000Z,13.90
2018-04-17T00:34:45.987Z,16.40
2018-04-17T00:35:45.981Z,13.30
2018-04-17T00:36:45.969Z,14.60
2018-04-17T00:37:45.968Z,15.80
2018-04-17T00:38:45.959Z,14.00
2018-04-17T00:39:45.948Z,12.40
2018-04-17T00:40:45.940Z,13.90
2018-04-17T00:41:45.931Z,14.70
2018-04-17T00:42:45.925Z,17.10
2018-04-17T00:43:45.918Z,14.70
2018-04-17T00:44:45.912Z,16.00
2018-04-17T00:45:45.922Z,15.30
2018-04-17T00:46:45.899Z,14.60
2018-04-17T00:47:45.893Z,17.70
2018-04-17T00:48:45.879Z,16.70
2018-04-17T00:49:45.874Z,16.70
2018-04-17T00:50:45.864Z,14.40
2018-04-17T00:51:45.859Z,18.00
2018-04-17T00:52:45.860Z,15.10
2018-04-17T00:53:45.842Z,15.00
2018-04-17T00:54:45.839Z,19.20
2018-04-17T00:55:45.826Z,15.60
2018-04-17T00:56:45.855Z,16.00
2018-04-17T00:57:45.812Z,15.10
2018-04-17T00:58:45.805Z,14.60
2018-04-17T00:59:45.820Z,15.50
2018-04-17T01:00:45.804Z,16.10
2018-04-17T01:01:45.779Z,15.50
2018-04-17T01:02:45.775Z,14.60
2018-04-17T01:03:45.767Z,14.40
2018-04-17T01:04:45.767Z,16.70
2018-04-17T01:05:45.752Z,17.00
2018-04-17T01:06:45.742Z,15.80
2018-04-17T01:07:45.736Z,14.50
2018-04-17T01:08:45.724Z,15.00
2018-04-17T01:09:45.720Z,14.00
2018-04-17T01:10:45.711Z,13.80
2018-04-17T01:11:45.704Z,17.40
2018-04-17T01:12:45.699Z,18.00
2018-04-17T01:13:45.691Z,19.40
2018-04-17T01:14:45.696Z,14.90
2018-04-17T01:15:45.678Z,16.20
2018-04-17T01:16:45.666Z,15.50
2018-04-17T01:17:45.658Z,19.20
2018-04-17T01:18:45.648Z,18.50
2018-04-17T01:19:45.644Z,17.50
2018-04-17T01:20:45.633Z,16.90
2018-04-17T01:21:45.650Z,17.10
2018-04-17T01:22:45.614Z,16.30
2018-04-17T01:23:45.611Z,19.40
2018-04-17T01:24:45.604Z,14.20
2018-04-17T01:25:45.598Z,15.40
2018-04-17T01:26:45.584Z,17.10
2018-04-17T01:27:45.580Z,18.30
2018-04-17T01:28:45.567Z,17.70
2018-04-17T01:29:45.559Z,14.70
2018-04-17T01:30:45.556Z,13.20
2018-04-17T01:31:45.548Z,13.70
2018-04-17T01:32:45.543Z,15.10
2018-04-17T01:33:45.531Z,15.70
2018-04-17T01:34:45.523Z,15.00
2018-04-17T01:35:45.515Z,17.60
2018-04-17T01:36:45.506Z,21.20
2018-04-17T01:37:45.499Z,17.50
2018-04-17T01:38:45.491Z,15.30
2018-04-17T01:39:45.482Z,16.60
2018-04-17T01:40:45.472Z,17.20
2018-04-17T01:41:45.465Z,17.10
2018-04-17T01:42:45.456Z,15.80
2018-04-17T01:43:45.450Z,16.10
2018-04-17T01:44:45.443Z,15.80
2018-04-17T01:45:45.436Z,15.70
2018-04-17T01:46:45.424Z,15.90
2018-04-17T01:47:45.420Z,15.40
2018-04-17T01:48:45.411Z,16.00
2018-04-17T01:49:45.401Z,15.80
2018-04-17T01:50:45.396Z,16.00
2018-04-17T01:51:45.389Z,19.50
2018-04-17T01:52:45.381Z,16.40
2018-04-17T01:53:45.369Z,16.90
2018-04-17T01:54:45.376Z,16.30
2018-04-17T01:55:45.356Z,15.40
2018-04-17T01:56:45.346Z,15.70
2018-04-17T01:57:45.339Z,17.70
2018-04-17T01:58:45.337Z,16.10
2018-04-17T01:59:45.340Z,17.90
2018-04-17T02:00:45.321Z,18.90
2018-04-17T02:01:45.321Z,18.40
2018-04-17T02:02:45.315Z,14.40
2018-04-17T02:03:45.309Z,17.60
2018-04-17T02:04:45.295Z,15.40
2018-04-17T02:05:45.285Z,19.50
2018-04-17T02:06:45.272Z,14.10
2018-04-17T02:07:45.310Z,20.90
2018-04-17T02:08:45.255Z,16.60
2018-04-17T02:09:45.243Z,16.10
2018-04-17T02:10:45.234Z,18.30
2018-04-17T02:11:45.231Z,16.90
2018-04-17T02:12:45.223Z,13.80
2018-04-17T02:13:45.209Z,20.60
2018-04-17T02:14:45.202Z,19.90
2018-04-17T02:15:45.204Z,18.60
2018-04-17T02:16:45.210Z,17.00
2018-04-17T02:17:45.188Z,16.60
2018-04-17T02:18:45.177Z,17.90
2018-04-17T02:19:45.167Z,17.60
2018-04-17T02:20:45.158Z,17.10
2018-04-17T02:21:45.148Z,18.30
2018-04-17T02:22:45.140Z,16.50
2018-04-17T02:23:45.158Z,17.50
2018-04-17T02:24:45.125Z,18.70
2018-04-17T02:25:45.120Z,16.00
2018-04-17T02:26:45.109Z,17.20
2018-04-17T02:27:45.102Z,17.10
2018-04-17T02:28:45.092Z,16.10
2018-04-17T02:29:45.082Z,17.00
2018-04-17T02:30:45.074Z,15.30
2018-04-17T02:31:45.067Z,16.10
2018-04-17T02:32:45.061Z,17.80
2018-04-17T02:33:45.056Z,16.10
2018-04-17T02:34:45.043Z,16.30
2018-04-17T02:35:45.037Z,18.50
2018-04-17T02:36:45.024Z,17.10
2018-04-17T02:37:45.019Z,17.60
2018-04-17T02:38:45.013Z,21.00
2018-04-17T02:39:45.009Z,15.80
2018-04-17T02:40:44.999Z,18.10
2018-04-17T02:41:45.012Z,19.00
2018-04-17T02:42:44.978Z,17.10
2018-04-17T02:43:44.967Z,16.00
2018-04-17T02:44:44.960Z,16.10
2018-04-17T02:45:44.960Z,17.20
2018-04-17T02:46:44.947Z,21.10
2018-04-17T02:47:44.939Z,16.00
2018-04-17T02:48:44.934Z,17.40
2018-04-17T02:49:44.920Z,18.00
2018-04-17T02:50:44.915Z,16.80
2018-04-17T02:51:44.908Z,14.10
2018-04-17T02:52:44.898Z,17.10
2018-04-17T02:53:44.892Z,17.00
2018-04-17T02:54:44.888Z,15.90
2018-04-17T02:55:44.879Z,17.90
2018-04-17T02:56:44.864Z,17.80
2018-04-17T02:57:44.884Z,17.20
2018-04-17T02:58:44.843Z,17.20
2018-04-17T02:59:44.839Z,19.10
2018-04-17T03:00:44.829Z,20.40
2018-04-17T03:01:44.824Z,20.60
2018-04-17T03:02:44.816Z,18.30
2018-04-17T03:03:44.803Z,15.40
2018-04-17T03:04:44.795Z,16.60
2018-04-17T03:05:44.790Z,18.50
2018-04-17T03:06:44.784Z,17.60
2018-04-17T03:07:44.780Z,15.40
2018-04-17T03:08:44.767Z,16.70
2018-04-17T03:09:44.754Z,15.50
2018-04-17T03:10:44.745Z,23.50
2018-04-17T03:11:44.740Z,16.40
2018-04-17T03:12:44.732Z,17.70
2018-04-17T03:13:44.727Z,16.80
2018-04-17T03:14:44.718Z,18.50
2018-04-17T03:15:44.713Z,15.00
2018-04-17T03:16:44.694Z,21.80
2018-04-17T03:17:44.687Z,19.40
2018-04-17T03:18:44.682Z,18.80
2018-04-17T03:19:44.676Z,17.40
2018-04-17T03:20:44.663Z,19.60
2018-04-17T03:21:44.660Z,16.40
2018-04-17T03:22:44.647Z,17.80
2018-04-17T03:23:44.638Z,14.40
2018-04-17T03:24:44.625Z,15.80
2018-04-17T03:25:44.625Z,19.50
2018-04-17T03:26:44.611Z,17.60
2018-04-17T03:27:44.611Z,18.40
2018-04-17T03:28:44.602Z,18.60
2018-04-17T03:29:44.590Z,15.10
2018-04-17T03:30:44.581Z,14.00
2018-04-17T03:31:44.575Z,17.50
2018-04-17T03:32:44.562Z,16.00
2018-04-17T03:33:44.558Z,15.70
2018-04-17T03:34:44.550Z,16.80
2018-04-17T03:35:44.542Z,19.40
2018-04-17T03:36:44.525Z,17.30
2018-04-17T03:37:44.523Z,18.60
2018-04-17T03:38:44.517Z,20.40
2018-04-17T03:39:44.502Z,17.20
2018-04-17T03:40:44.504Z,17.30
2018-04-17T03:41:44.487Z,17.40
2018-04-17T03:42:44.477Z,18.80
2018-04-17T03:43:44.468Z,19.90
2018-04-17T03:44:44.458Z,19.40
2018-04-17T03:45:44.453Z,18.80
2018-04-17T03:46:44.450Z,17.30
2018-04-17T03:47:44.440Z,17.00
2018-04-17T03:48:44.429Z,19.20
2018-04-17T03:49:44.419Z,13.00
2018-04-17T03:50:44.409Z,16.30
2018-04-17T03:51:44.425Z,19.20
2018-04-17T03:52:44.391Z,16.20
2018-04-17T03:53:44.387Z,19.40
2018-04-17T03:54:44.378Z,19.90
2018-04-17T03:55:44.368Z,24.70
2018-04-17T03:56:44.368Z,17.20
2018-04-17T03:57:44.351Z,20.30
2018-04-17T03:58:44.341Z,17.60
2018-04-17T03:59:44.334Z,21.90
2018-04-17T04:00:44.323Z,21.30
2018-04-17T04:01:44.318Z,16.30
2018-04-17T04:02:44.326Z,19.40
2018-04-17T04:03:44.306Z,23.30
2018-04-17T04:04:44.293Z,21.10
2018-04-17T04:05:44.283Z,21.80
2018-04-17T04:06:44.275Z,22.20
2018-04-17T04:07:44.265Z,21.30
2018-04-17T04:08:44.255Z,23.10
2018-04-17T04:09:44.252Z,21.20
2018-04-17T04:10:44.239Z,21.30
2018-04-17T04:11:44.233Z,22.80
2018-04-17T04:12:44.223Z,21.40
2018-04-17T04:13:44.214Z,25.00
2018-04-17T04:14:44.211Z,21.60
2018-04-17T04:15:44.205Z,20.50
2018-04-17T04:16:44.189Z,22.20
2018-04-17T04:17:44.191Z,20.30
2018-04-17T04:18:44.176Z,21.50
2018-04-17T04:19:44.166Z,17.80
2018-04-17T04:20:44.155Z,22.60
2018-04-17T04:21:44.144Z,16.00
2018-04-17T04:22:44.136Z,21.40
2018-04-17T04:23:44.130Z,19.80
2018-04-17T04:24:44.121Z,20.30
2018-04-17T04:25:44.118Z,22.00
2018-04-17T04:26:44.110Z,17.80
2018-04-17T04:27:44.097Z,22.70
2018-04-17T04:28:44.089Z,25.60
2018-04-17T04:29:44.080Z,24.50
2018-04-17T04:30:44.074Z,17.10
2018-04-17T04:31:44.064Z,21.10
2018-04-17T04:32:44.053Z,24.40
2018-04-17T04:33:44.041Z,25.30
2018-04-17T04:34:44.083Z,20.30
2018-04-17T04:35:44.029Z,26.30
2018-04-17T04:36:44.018Z,20.90
2018-04-17T04:37:44.009Z,19.80
2018-04-17T04:38:44.005Z,24.00
2018-04-17T04:39:43.996Z,24.90
2018-04-17T04:40:44.004Z,24.30
2018-04-17T04:41:43.973Z,26.40
2018-04-17T04:42:43.965Z,25.50
2018-04-17T04:43:43.956Z,29.50
2018-04-17T04:44:43.950Z,26.40
2018-04-17T04:45:43.943Z,21.90
2018-04-17T04:46:43.933Z,22.30
2018-04-17T04:47:43.931Z,21.80
2018-04-17T04:48:43.916Z,25.10
2018-04-17T04:49:43.909Z,25.90
2018-04-17T04:50:43.898Z,29.20
2018-04-17T04:51:43.893Z,26.90
2018-04-17T04:52:43.886Z,21.90
2018-04-17T04:53:43.873Z,25.00
2018-04-17T04:54:43.867Z,24.20
2018-04-17T04:55:43.858Z,26.30
2018-04-17T04:56:43.849Z,24.90
2018-04-17T04:57:43.848Z,26.30
2018-04-17T04:58:43.833Z,31.60
2018-04-17T04:59:43.825Z,38.50
2018-04-17T05:00:43.816Z,33.30
2018-04-17T05:01:43.804Z,34.10
2018-04-17T05:02:43.794Z,33.60
2018-04-17T05:03:43.788Z,35.80
2018-04-17T05:04:43.849Z,25.70
2018-04-17T05:05:43.775Z,29.20
2018-04-17T05:06:43.779Z,29.80
2018-04-17T05:07:43.761Z,28.00
2018-04-17T05:08:43.756Z,28.60
2018-04-17T05:09:43.736Z,30.20
2018-04-17T05:10:43.734Z,27.90
2018-04-17T05:11:43.726Z,28.00
2018-04-17T05:12:43.721Z,29.10
2018-04-17T05:13:43.711Z,28.40
2018-04-17T05:14:43.731Z,22.60
2018-04-17T05:15:43.701Z,23.70
2018-04-17T05:16:43.680Z,23.80
2018-04-17T05:17:43.673Z,19.90
2018-04-17T05:18:43.668Z,23.30
2018-04-17T05:19:43.658Z,27.00
2018-04-17T05:20:43.650Z,17.40
2018-04-17T05:21:43.637Z,25.30
2018-04-17T05:22:43.634Z,24.80
2018-04-17T05:23:43.637Z,20.00
2018-04-17T05:24:43.618Z,18.60
2018-04-17T05:25:43.612Z,21.00
2018-04-17T05:26:43.603Z,21.10
2018-04-17T05:27:43.629Z,19.90
2018-04-17T05:28:43.585Z,19.60
2018-04-17T05:29:43.603Z,16.30
2018-04-17T05:30:43.573Z,20.50
2018-04-17T05:31:43.565Z,21.10
2018-04-17T05:32:43.557Z,21.40
2018-04-17T05:33:43.549Z,25.00
2018-04-17T05:34:43.545Z,24.90
2018-04-17T05:35:43.533Z,23.60
2018-04-17T05:36:43.526Z,26.00
2018-04-17T05:37:43.518Z,27.70
2018-04-17T05:38:43.514Z,29.50
2018-04-17T05:39:43.510Z,27.60
2018-04-17T05:40:43.501Z,29.50
2018-04-17T05:41:43.490Z,33.40
2018-04-17T05:42:43.491Z,36.00
2018-04-17T05:43:43.476Z,32.30
2018-04-17T05:44:43.466Z,36.60
2018-04-17T05:45:43.459Z,35.20
2018-04-17T05:46:43.456Z,34.80
2018-04-17T05:47:43.448Z,36.00
2018-04-17T05:48:43.445Z,32.50
2018-04-17T05:49:43.430Z,36.60
2018-04-17T05:50:43.426Z,29.00
2018-04-17T05:51:43.420Z,31.40
2018-04-17T05:52:43.421Z,27.20
2018-04-17T05:53:43.417Z,30.50
2018-04-17T05:54:43.397Z,31.40
2018-04-17T05:55:43.438Z,27.40
2018-04-17T05:56:43.380Z,29.70
2018-04-17T05:57:43.398Z,32.20
2018-04-17T05:58:43.371Z,27.10
2018-04-17T05:59:43.368Z,30.40
2018-04-17T06:00:43.356Z,31.90
2018-04-17T06:01:43.348Z,24.40
2018-04-17T06:02:43.340Z,26.70
2018-04-17T06:03:43.334Z,37.50
2018-04-17T06:04:43.325Z,30.20
2018-04-17T06:05:43.321Z,29.20
2018-04-17T06:06:43.314Z,31.90
2018-04-17T06:07:43.313Z,29.20
2018-04-17T06:08:43.294Z,26.00
2018-04-17T06:09:43.292Z,25.40
2018-04-17T06:10:43.281Z,28.50
2018-04-17T06:11:43.277Z,31.00
2018-04-17T06:12:43.272Z,28.60
2018-04-17T06:13:43.323Z,26.20
2018-04-17T06:14:43.259Z,26.50
2018-04-17T06:15:43.251Z,24.90
2018-04-17T06:16:43.240Z,32.30
2018-04-17T06:17:43.234Z,27.20
2018-04-17T06:18:43.234Z,27.60
2018-04-17T06:19:43.224Z,28.40
2018-04-17T06:20:43.215Z,27.90
2018-04-17T06:21:43.211Z,23.50
2018-04-17T06:22:43.204Z,23.10
2018-04-17T06:23:43.193Z,24.00
2018-04-17T06:24:43.186Z,25.30
2018-04-17T06:25:43.181Z,25.20
2018-04-17T06:26:43.173Z,25.10
2018-04-17T06:27:43.169Z,25.10
2018-04-17T06:28:43.163Z,26.20
2018-04-17T06:29:43.159Z,28.10
2018-04-17T06:30:43.151Z,25.30
2018-04-17T06:31:43.140Z,22.00
2018-04-17T06:32:43.137Z,20.20
2018-04-17T06:33:43.130Z,23.80
2018-04-17T06:34:43.122Z,24.20
2018-04-17T06:35:43.116Z,24.60
2018-04-17T06:36:43.111Z,23.60
2018-04-17T06:37:43.104Z,25.10
2018-04-17T06:38:43.099Z,23.90
2018-04-17T06:39:43.093Z,25.10
2018-04-17T06:40:43.085Z,21.90
2018-04-17T06:41:43.165Z,25.00
2018-04-17T06:42:43.088Z,21.10
2018-04-17T06:43:43.070Z,23.80
2018-04-17T06:44:43.062Z,26.40
2018-04-17T06:45:43.050Z,21.00
2018-04-17T06:46:43.053Z,21.60
2018-04-17T06:47:43.091Z,26.60
2018-04-17T06:48:43.040Z,25.00
2018-04-17T06:49:43.032Z,25.00
2018-04-17T06:50:43.031Z,24.00
2018-04-17T06:51:43.016Z,26.10
2018-04-17T06:52:43.093Z,21.80
2018-04-17T06:53:43.026Z,25.20
2018-04-17T06:54:43.024Z,24.20
2018-04-17T06:55:42.996Z,24.10
2018-04-17T06:56:42.990Z,27.00
2018-04-17T06:57:42.984Z,23.70
2018-04-17T06:58:42.978Z,22.00
2018-04-17T06:59:42.971Z,18.80
2018-04-17T07:00:42.965Z,24.80
2018-04-17T07:01:42.959Z,21.90
2018-04-17T07:02:42.952Z,24.70
2018-04-17T07:03:42.950Z,25.50
2018-04-17T07:04:42.943Z,22.80
2018-04-17T07:05:42.935Z,24.60
2018-04-17T07:06:42.941Z,24.30
2018-04-17T07:07:42.926Z,25.50
2018-04-17T07:08:42.925Z,19.70
2018-04-17T07:09:42.914Z,27.50
2018-04-17T07:10:42.910Z,24.70
2018-04-17T07:11:42.951Z,26.40
2018-04-17T07:12:42.894Z,24.60
2018-04-17T07:13:42.889Z,26.20
2018-04-17T07:14:42.886Z,24.50
2018-04-17T07:15:42.884Z,23.20
2018-04-17T07:16:42.876Z,27.70
2018-04-17T07:17:42.868Z,24.80
2018-04-17T07:18:42.863Z,25.00
2018-04-17T07:19:42.854Z,25.50
2018-04-17T07:20:42.847Z,24.20
2018-04-17T07:21:42.839Z,23.90
2018-04-17T07:22:42.837Z,21.00
2018-04-17T07:23:42.898Z,28.90
2018-04-17T07:24:42.824Z,26.30
2018-04-17T07:25:42.821Z,24.30
2018-04-17T07:26:42.814Z,21.30
2018-04-17T07:27:42.809Z,22.60
2018-04-17T07:28:42.803Z,22.70
2018-04-17T07:29:42.801Z,24.10
2018-04-17T07:30:42.796Z,22.80
2018-04-17T07:31:42.791Z,21.10
2018-04-17T07:32:42.784Z,24.20
2018-04-17T07:33:42.785Z,21.30
2018-04-17T07:34:42.780Z,24.10
2018-04-17T07:35:42.772Z,23.30
2018-04-17T07:36:42.764Z,19.00
2018-04-17T07:37:42.762Z,25.10
2018-04-17T07:38:43.441Z,19.80
2018-04-17T07:39:42.755Z,22.50
2018-04-17T07:40:42.744Z,22.40
2018-04-17T07:41:42.743Z,21.70
2018-04-17T07:42:42.735Z,21.80
2018-04-17T07:43:42.735Z,22.10
2018-04-17T07:44:42.731Z,20.50
2018-04-17T07:45:42.725Z,21.90
2018-04-17T07:46:42.721Z,18.00
2018-04-17T07:47:42.715Z,26.20
2018-04-17T07:48:42.709Z,21.10
2018-04-17T07:49:42.710Z,23.10
2018-04-17T07:50:42.704Z,20.40
2018-04-17T07:51:42.702Z,23.90
2018-04-17T07:52:42.699Z,23.40
2018-04-17T07:53:42.694Z,20.20
2018-04-17T07:54:42.696Z,18.70
2018-04-17T07:55:42.729Z,17.80
2018-04-17T07:56:42.681Z,17.00
2018-04-17T07:57:42.676Z,22.40
2018-04-17T07:58:42.681Z,21.90
2018-04-17T07:59:42.675Z,21.30
2018-04-17T08:00:42.671Z,22.30
2018-04-17T08:01:42.668Z,20.60
2018-04-17T08:02:42.662Z,20.80
2018-04-17T08:03:42.663Z,20.50
2018-04-17T08:04:42.660Z,19.20
2018-04-17T08:05:42.664Z,20.80
2018-04-17T08:06:42.659Z,23.50
2018-04-17T08:07:42.656Z,15.70
2018-04-17T08:08:42.650Z,17.10
2018-04-17T08:09:42.646Z,20.30
2018-04-17T08:10:42.652Z,17.50
2018-04-17T08:11:42.646Z,19.30
2018-04-17T08:12:42.664Z,17.20
2018-04-17T08:13:42.651Z,17.70
2018-04-17T08:14:42.649Z,18.20
2018-04-17T08:15:42.648Z,18.00
2018-04-17T08:16:42.646Z,17.00
2018-04-17T08:17:42.646Z,16.40
2018-04-17T08:18:42.648Z,16.30
2018-04-17T08:19:42.651Z,18.50
2018-04-17T08:20:42.651Z,20.60
2018-04-17T08:21:42.655Z,15.00
2018-04-17T08:22:42.651Z,20.20
2018-04-17T08:23:42.656Z,17.20
2018-04-17T08:24:42.653Z,14.70
2018-04-17T08:25:42.661Z,15.00
2018-04-17T08:26:42.663Z,15.10
2018-04-17T08:27:42.666Z,13.00
2018-04-17T08:28:42.665Z,14.00
2018-04-17T08:29:42.668Z,16.10
2018-04-17T08:30:42.669Z,15.10
2018-04-17T08:31:42.675Z,12.70
2018-04-17T08:32:42.683Z,14.50
2018-04-17T08:33:42.681Z,17.60
2018-04-17T08:34:42.687Z,14.00
2018-04-17T08:35:42.698Z,13.40
2018-04-17T08:36:42.701Z,11.50
2018-04-17T08:37:42.699Z,13.50
2018-04-17T08:38:42.706Z,13.80
2018-04-17T08:39:42.713Z,13.20
2018-04-17T08:40:42.720Z,13.80
2018-04-17T08:41:42.723Z,13.40
2018-04-17T08:42:42.732Z,14.30
2018-04-17T08:43:42.732Z,13.20
2018-04-17T08:44:42.740Z,12.60
2018-04-17T08:45:42.740Z,13.80
2018-04-17T08:46:42.750Z,13.90
2018-04-17T08:47:42.754Z,13.40
2018-04-17T08:48:42.764Z,12.50
2018-04-17T08:49:42.761Z,12.30
2018-04-17T08:50:42.772Z,12.90
2018-04-17T08:51:42.778Z,13.10
2018-04-17T08:52:42.782Z,14.80
2018-04-17T08:53:42.786Z,13.50
2018-04-17T08:54:42.797Z,13.10
2018-04-17T08:55:42.804Z,16.00
2018-04-17T08:56:42.807Z,12.40
2018-04-17T08:57:42.811Z,13.90
2018-04-17T08:58:42.820Z,13.20
2018-04-17T08:59:42.847Z,13.10
2018-04-17T09:00:42.887Z,13.30
2018-04-17T09:01:42.846Z,14.30
2018-04-17T09:02:42.849Z,12.80
2018-04-17T09:03:42.853Z,13.70
2018-04-17T09:04:42.858Z,14.60
2018-04-17T09:05:42.865Z,13.30
2018-04-17T09:06:42.877Z,10.10
2018-04-17T09:07:42.883Z,11.30
2018-04-17T09:08:42.890Z,13.10
2018-04-17T09:09:42.900Z,12.50
2018-04-17T09:10:42.918Z,11.80
2018-04-17T09:11:42.952Z,11.90
2018-04-17T09:12:42.917Z,12.00
2018-04-17T09:13:42.928Z,12.60
2018-04-17T09:14:42.933Z,12.00
2018-04-17T09:15:42.938Z,10.20
2018-04-17T09:16:42.949Z,12.10
2018-04-17T09:17:42.954Z,14.30
2018-04-17T09:18:42.959Z,13.50
2018-04-17T09:19:42.970Z,13.40
2018-04-17T09:20:42.980Z,11.00
2018-04-17T09:21:42.990Z,12.20
2018-04-17T09:22:42.994Z,13.70
2018-04-17T09:23:43.003Z,11.40
2018-04-17T09:24:43.006Z,13.90
2018-04-17T09:25:43.016Z,13.70
2018-04-17T09:26:43.029Z,11.20
2018-04-17T09:27:43.061Z,12.70
2018-04-17T09:28:43.072Z,12.90
2018-04-17T09:29:43.049Z,12.90
2018-04-17T09:30:43.070Z,14.90
2018-04-17T09:31:43.073Z,13.20
2018-04-17T09:32:43.066Z,13.10
2018-04-17T09:33:43.073Z,10.30
2018-04-17T09:34:43.087Z,13.10
2018-04-17T09:35:43.090Z,12.60
2018-04-17T09:36:43.100Z,14.10
2018-04-17T09:37:43.106Z,13.50
2018-04-17T09:38:43.113Z,12.90
2018-04-17T09:39:43.127Z,13.30
2018-04-17T09:40:43.133Z,17.50
2018-04-17T09:41:43.137Z,14.40
2018-04-17T09:42:43.150Z,13.90
2018-04-17T09:43:43.156Z,14.90
2018-04-17T09:44:43.160Z,15.20
2018-04-17T09:45:43.166Z,14.00
2018-04-17T09:46:43.174Z,13.50
2018-04-17T09:47:43.213Z,14.40
2018-04-17T09:48:43.203Z,11.90
2018-04-17T09:49:43.204Z,15.80
2018-04-17T09:50:43.205Z,15.60
2018-04-17T09:51:43.220Z,11.50
2018-04-17T09:52:43.234Z,14.70
2018-04-17T09:53:43.230Z,12.50
2018-04-17T09:54:43.248Z,13.10
2018-04-17T09:55:43.258Z,14.20
2018-04-17T09:56:43.260Z,13.30
2018-04-17T09:57:43.268Z,11.50
2018-04-17T09:58:43.274Z,12.30
2018-04-17T09:59:43.281Z,13.20
2018-04-17T10:00:43.301Z,13.10
2018-04-17T10:01:43.306Z,13.20
2018-04-17T10:02:43.313Z,13.30
2018-04-17T10:03:43.321Z,12.50
2018-04-17T10:04:43.329Z,10.90
2018-04-17T10:05:43.333Z,13.00
2018-04-17T10:06:43.341Z,13.80
2018-04-17T10:07:43.362Z,13.80
2018-04-17T10:08:43.367Z,13.30
2018-04-17T10:09:43.369Z,14.50
2018-04-17T10:10:43.375Z,15.20
2018-04-17T10:11:43.380Z,13.80
2018-04-17T10:12:43.387Z,14.90
2018-04-17T10:13:43.399Z,17.10
2018-04-17T10:14:43.404Z,12.20
2018-04-17T10:15:43.415Z,12.30
2018-04-17T10:16:43.422Z,14.60
2018-04-17T10:17:43.430Z,12.40
2018-04-17T10:18:43.435Z,11.60
2018-04-17T10:19:43.443Z,11.30
2018-04-17T10:20:43.450Z,11.20
2018-04-17T10:21:43.462Z,11.00
2018-04-17T10:22:43.476Z,9.60
2018-04-17T10:23:43.479Z,12.80
2018-04-17T10:24:43.484Z,12.00
2018-04-17T10:25:43.493Z,11.70
2018-04-17T10:26:43.505Z,12.00
2018-04-17T10:27:43.515Z,10.70
2018-04-17T10:28:43.519Z,14.30
2018-04-17T10:29:43.526Z,13.30
2018-04-17T10:30:43.539Z,13.60
2018-04-17T10:31:43.542Z,14.30
2018-04-17T10:32:44.490Z,15.90
2018-04-17T10:33:43.567Z,12.00
2018-04-17T10:34:43.568Z,13.40
2018-04-17T10:35:43.578Z,12.70
2018-04-17T10:36:43.583Z,11.00
2018-04-17T10:37:43.593Z,12.90
2018-04-17T10:38:43.595Z,11.90
2018-04-17T10:39:43.661Z,11.60
2018-04-17T10:40:43.613Z,11.00
2018-04-17T10:41:43.623Z,13.80
2018-04-17T10:42:43.634Z,11.50
2018-04-17T10:43:43.641Z,12.00
2018-04-17T10:44:43.642Z,12.30
2018-04-17T10:45:43.655Z,11.00
2018-04-17T10:46:43.663Z,12.30
2018-04-17T10:47:43.674Z,9.70
2018-04-17T10:48:43.681Z,12.30
2018-04-17T10:49:43.686Z,12.40
2018-04-17T10:50:43.699Z,12.80
2018-04-17T10:51:43.701Z,10.40
2018-04-17T10:52:43.712Z,11.40
2018-04-17T10:53:43.716Z,13.20
2018-04-17T10:54:43.726Z,11.90
2018-04-17T10:55:43.735Z,10.40
2018-04-17T10:56:43.739Z,12.30
2018-04-17T10:57:43.748Z,13.30
2018-04-17T10:58:43.752Z,13.00
2018-04-17T10:59:43.780Z,14.20
2018-04-17T11:00:43.771Z,12.40
2018-04-17T11:01:43.777Z,12.90
2018-04-17T11:02:43.787Z,12.00
2018-04-17T11:03:43.799Z,14.60
2018-04-17T11:04:43.800Z,12.70
2018-04-17T11:05:43.826Z,11.90
2018-04-17T11:06:43.813Z,15.00
2018-04-17T11:07:43.833Z,13.10
2018-04-17T11:08:43.832Z,11.80
2018-04-17T11:09:43.845Z,13.00
2018-04-17T11:10:43.868Z,12.90
2018-04-17T11:11:43.867Z,11.00
2018-04-17T11:12:43.859Z,10.90
2018-04-17T11:13:43.872Z,13.10
2018-04-17T11:14:43.883Z,11.90
2018-04-17T11:15:43.891Z,12.10
2018-04-17T11:16:43.896Z,11.70
2018-04-17T11:17:43.903Z,10.40
2018-04-17T11:18:43.909Z,13.50
2018-04-17T11:19:43.919Z,15.90
2018-04-17T11:20:43.927Z,11.80
2018-04-17T11:21:43.940Z,13.30
2018-04-17T11:22:43.951Z,13.30
2018-04-17T11:23:43.959Z,11.30
2018-04-17T11:24:43.967Z,13.10
2018-04-17T11:25:43.973Z,11.80
2018-04-17T11:26:43.982Z,12.40
2018-04-17T11:27:43.989Z,12.10
2018-04-17T11:28:43.998Z,11.70
2018-04-17T11:29:44.006Z,14.20
2018-04-17T11:30:44.017Z,10.50
2018-04-17T11:31:44.020Z,12.40
2018-04-17T11:32:44.037Z,12.10
2018-04-17T11:33:44.040Z,9.60
2018-04-17T11:34:44.073Z,11.80
2018-04-17T11:35:44.062Z,10.70
2018-04-17T11:36:44.066Z,11.70
2018-04-17T11:37:44.080Z,10.70
2018-04-17T11:38:44.088Z,12.20
2018-04-17T11:39:44.094Z,11.00
2018-04-17T11:40:44.107Z,10.90
2018-04-17T11:41:44.117Z,12.70
2018-04-17T11:42:44.125Z,12.50
2018-04-17T11:43:44.138Z,12.20
2018-04-17T11:44:44.143Z,15.60
2018-04-17T11:45:44.154Z,16.40
2018-04-17T11:46:44.162Z,13.80
2018-04-17T11:47:44.174Z,14.10
2018-04-17T11:48:44.234Z,12.80
2018-04-17T11:49:44.193Z,14.00
2018-04-17T11:50:44.198Z,13.90
2018-04-17T11:51:44.207Z,11.80
2018-04-17T11:52:44.215Z,12.50
2018-04-17T11:53:44.223Z,12.20
2018-04-17T11:54:44.238Z,13.10
2018-04-17T11:55:44.245Z,12.50
2018-04-17T11:56:44.255Z,12.10
2018-04-17T11:57:44.264Z,13.00
2018-04-17T11:58:44.267Z,10.90
2018-04-17T11:59:44.285Z,13.60
2018-04-17T12:00:44.290Z,13.60
2018-04-17T12:01:44.308Z,13.70
2018-04-17T12:02:44.304Z,12.30
2018-04-17T12:03:44.317Z,11.60
2018-04-17T12:04:44.321Z,14.20
2018-04-17T12:05:44.332Z,13.30
2018-04-17T12:06:44.339Z,13.20
2018-04-17T12:07:44.365Z,16.40
2018-04-17T12:08:44.360Z,12.30
2018-04-17T12:09:44.370Z,12.30
2018-04-17T12:10:44.384Z,13.70
2018-04-17T12:11:44.390Z,13.20
2018-04-17T12:12:44.393Z,14.00
2018-04-17T12:13:44.405Z,12.00
2018-04-17T12:14:44.471Z,10.70
2018-04-17T12:15:44.421Z,12.50
2018-04-17T12:16:44.427Z,13.00
2018-04-17T12:17:44.439Z,12.00
2018-04-17T12:18:44.446Z,13.20
2018-04-17T12:19:44.453Z,12.00
2018-04-17T12:20:44.475Z,11.80
2018-04-17T12:21:44.471Z,11.10
2018-04-17T12:22:44.484Z,13.20
2018-04-17T12:23:44.495Z,13.30
2018-04-17T12:24:44.500Z,10.50
2018-04-17T12:25:44.512Z,11.80
2018-04-17T12:26:44.516Z,12.70
2018-04-17T12:27:44.522Z,11.30
2018-04-17T12:28:44.532Z,10.80
2018-04-17T12:29:44.544Z,12.60
2018-04-17T12:30:44.553Z,12.60
2018-04-17T12:31:44.563Z,11.40
2018-04-17T12:32:44.567Z,11.70
2018-04-17T12:33:44.580Z,10.80
2018-04-17T12:34:44.588Z,10.80
2018-04-17T12:35:44.598Z,11.30
2018-04-17T12:36:44.606Z,10.60
2018-04-17T12:37:44.618Z,12.90
2018-04-17T12:38:44.619Z,11.00
2018-04-17T12:39:44.633Z,8.90
2018-04-17T12:40:44.644Z,10.50
2018-04-17T12:41:44.657Z,10.60
2018-04-17T12:42:44.667Z,10.20
2018-04-17T12:43:44.679Z,12.40
2018-04-17T12:44:44.679Z,9.50
2018-04-17T12:45:44.686Z,10.40
2018-04-17T12:46:44.694Z,10.50
2018-04-17T12:47:44.711Z,9.50
2018-04-17T12:48:44.730Z,11.70
2018-04-17T12:49:44.725Z,11.30
2018-04-17T12:50:44.737Z,8.70
2018-04-17T12:51:44.739Z,11.40
2018-04-17T12:52:44.745Z,10.90